Ravenna, OH

10:01 PM EST on December 13, 2017 (GMT -0500)
Ravenna

Weather History for KPOV - September, 2013

Change the Weather History Date:

Wednesday, September 25, 2013

  Actual Average (KCAK) Record (KCAK)
Temperature  
Mean Temperature 56 °F -  
Max Temperature 71 °F 69 °F 92 °F (1908)
Min Temperature 42 °F 49 °F 33 °F (1942)
Degree Days  
Heating Degree Days 8    
Growing Degree Days 6 (Base 50)    
Moisture  
Dew Point 48 °F    
Average Humidity 79    
Maximum Humidity 100    
Minimum Humidity 46    
Precipitation  
Precipitation 0.00 in - - ()
Sea Level Pressure  
Sea Level Pressure 29.97 in    
Wind  
Wind Speed 4 mph (ENE)    
Max Wind Speed 9 mph    
Max Gust Speed -    
Visibility 10 miles    
Events      
Averages and records for this station are not official NWS values.
T = Trace of Precipitation, MM = Missing Value Source: NWS Daily Summary

Daily Weather History Graph

Daily Weather History Graph

Search for Another Location

Airport or City:

Trip Planner

Search our weather history database for the weather conditions in past years. The results will help you decide how hot, cold, wet, or windy it might be!

Date:

Astronomy

Sep. 25, 2013 Rise Set
Actual Time 7:15 AM EDT 7:16 PM EDT
Civil Twilight 6:48 AM EDT 7:44 PM EDT
Nautical Twilight 6:16 AM EDT 8:16 PM EDT
Astronomical Twilight 5:43 AM EDT 8:48 PM EDT
Moon 11:18 PM EDT (9/25) 1:23 PM EDT (9/25)
Length of Visible Light 12h 55m
Length of Day
12h 00m
Waning Gibbous, 64% of the Moon is Illuminated
Sep 25
Waning Gibbous
Sep 26
Last Quarter
Oct 4
New
Oct 11
First Quarter
Oct 18
Full

Hourly Weather History & Observations

Time (EDT) Temp. Windchill Dew Point Humidity Pressure Visibility Wind Dir Wind Speed Gust Speed Precip Events Conditions
12:14 AM 46.9 °F - 47.1 °F 100% 30.01 in 10.0 mi ENE 4.6 mph - N/A   Clear
12:34 AM 46.6 °F - 46.8 °F 100% 30.00 in 10.0 mi ENE 3.5 mph - N/A   Clear
12:55 AM 46.6 °F - 46.8 °F 100% 30.00 in 10.0 mi ENE 3.5 mph - N/A   Clear
1:14 AM 46.8 °F - 47.1 °F 100% 30.00 in 10.0 mi Calm Calm - N/A   Clear
1:34 AM 46.0 °F - 46.2 °F 100% 30.00 in 10.0 mi Calm Calm - N/A   Clear
1:54 AM 45.5 °F - 45.7 °F 100% 30.00 in 7.0 mi Calm Calm - N/A   Clear
2:15 AM 43.7 °F - 43.9 °F 100% 29.99 in 7.0 mi Calm Calm - N/A   Clear
2:34 AM - - - N/A% 29.98 in 10.0 mi ENE 4.6 mph - N/A   Clear
2:54 AM 43.7 °F 41.1 °F 43.9 °F 100% 29.98 in 10.0 mi ENE 4.6 mph - N/A   Clear
3:15 AM 45.0 °F - 45.1 °F 100% 29.98 in 10.0 mi Calm Calm - N/A   Clear
3:34 AM 45.9 °F - 45.9 °F 100% 29.98 in 10.0 mi Calm Calm - N/A   Clear
3:54 AM 45.5 °F - 45.7 °F 100% 29.98 in 10.0 mi Calm Calm - N/A   Clear
4:14 AM 42.4 °F 40.7 °F 42.8 °F 100% 29.97 in 10.0 mi East 3.5 mph - N/A   Clear
4:34 AM 43.3 °F 40.7 °F 43.5 °F 100% 29.96 in 10.0 mi ENE 4.6 mph - N/A   Clear
4:55 AM 43.7 °F 41.1 °F 43.9 °F 100% 29.96 in 10.0 mi ENE 4.6 mph - N/A   Clear
5:14 AM 44.4 °F 42.9 °F 44.6 °F 100% 29.96 in 10.0 mi ENE 3.5 mph - N/A   Clear
5:35 AM 44.8 °F 43.3 °F 45.0 °F 100% 29.97 in 10.0 mi East 3.5 mph - N/A   Clear
5:54 AM - - - N/A% 29.97 in 10.0 mi Calm Calm - N/A   Clear
6:14 AM 43.9 °F 40.5 °F 43.9 °F 100% 29.96 in 10.0 mi ENE 5.8 mph - N/A   Clear
6:35 AM 44.1 °F - 44.4 °F 100% 29.97 in 10.0 mi Calm Calm - N/A   Clear
6:54 AM 44.6 °F - 44.8 °F 100% 29.97 in 7.0 mi Calm Calm - N/A   Clear
7:14 AM 44.2 °F 42.7 °F 44.6 °F 100% 29.97 in 7.0 mi East 3.5 mph - N/A   Clear
7:34 AM 44.6 °F 43.1 °F 44.8 °F 100% 29.97 in 7.0 mi ENE 3.5 mph - N/A   Clear
7:54 AM 44.1 °F 41.5 °F 44.2 °F 100% 29.97 in 7.0 mi ENE 4.6 mph - N/A   Clear
8:14 AM 44.6 °F 42.2 °F 44.8 °F 100% 29.97 in 7.0 mi ENE 4.6 mph - N/A   Clear
8:34 AM - - - N/A% 29.98 in 10.0 mi ENE 3.5 mph - N/A   Clear
8:55 AM 49.1 °F - 49.3 °F 100% 29.98 in 10.0 mi ENE 3.5 mph - N/A   Clear
9:14 AM 51.3 °F - 51.4 °F 100% 29.98 in 10.0 mi ENE 5.8 mph - N/A   Clear
9:34 AM 53.6 °F - 53.2 °F 99% 29.98 in 10.0 mi East 5.8 mph - N/A   Clear
9:55 AM 55.8 °F - 51.6 °F 86% 29.98 in 10.0 mi East 6.9 mph - N/A   Unknown
10:15 AM 56.8 °F - 51.3 °F 82% 29.98 in 10.0 mi East 3.5 mph - N/A   Unknown
10:34 AM 57.2 °F - 49.8 °F 76% 29.98 in 10.0 mi ENE 3.5 mph - N/A   Clear
10:55 AM 58.5 °F - 48.6 °F 70% 29.99 in 10.0 mi ESE 4.6 mph - N/A   Clear
11:15 AM 59.4 °F - 48.9 °F 68% 29.99 in 10.0 mi East 4.6 mph - N/A   Clear
11:34 AM 58.8 °F - 49.1 °F 70% 30.00 in 10.0 mi ESE 3.5 mph - N/A   Clear
11:54 AM 59.0 °F - 48.7 °F 69% 29.99 in 10.0 mi East 3.5 mph - N/A   Clear
12:15 PM 59.5 °F - 50.0 °F 71% 29.98 in 10.0 mi East 3.5 mph - N/A   Clear
12:34 PM 59.7 °F - 50.0 °F 70% 29.98 in 10.0 mi Calm Calm - N/A   Clear
12:54 PM 61.0 °F - 50.7 °F 69% 29.98 in 10.0 mi NE 4.6 mph - N/A   Clear
1:15 PM 64.8 °F - 50.4 °F 60% 29.98 in 10.0 mi ENE 3.5 mph - N/A   Clear
1:34 PM 66.2 °F - 49.6 °F 55% 29.97 in 10.0 mi Calm Calm - N/A   Clear
1:54 PM 68.9 °F - 48.6 °F 48% 29.96 in 10.0 mi East 4.6 mph - N/A   Clear
2:15 PM 69.6 °F - 49.6 °F 49% 29.96 in 10.0 mi NE 6.9 mph - N/A   Clear
2:34 PM 70.2 °F - 49.1 °F 47% 29.95 in 10.0 mi NE 6.9 mph - N/A   Clear
2:55 PM 69.8 °F - 48.4 °F 46% 29.95 in 10.0 mi NE 4.6 mph - N/A   Clear
3:15 PM 70.7 °F - 48.9 °F 46% 29.94 in 10.0 mi NE 9.2 mph - N/A   Clear
3:34 PM 71.2 °F - 49.8 °F 47% 29.94 in 10.0 mi NE 8.1 mph - N/A   Clear
3:54 PM 70.9 °F - 48.9 °F 46% 29.93 in 10.0 mi ENE 6.9 mph - N/A   Clear
4:15 PM 71.2 °F - 50.7 °F 48% 29.93 in 10.0 mi East 6.9 mph - N/A   Clear
4:34 PM 70.7 °F - 49.8 °F 48% 29.92 in 10.0 mi NNE 5.8 mph - N/A   Clear
4:54 PM 68.5 °F - 50.0 °F 52% 29.93 in 10.0 mi ENE 8.1 mph - N/A   Clear
5:15 PM 66.0 °F - 50.7 °F 58% 29.93 in 10.0 mi Calm Calm - N/A   Clear
5:34 PM 67.8 °F - 51.4 °F 56% 29.93 in 10.0 mi NE 4.6 mph - N/A   Clear
5:54 PM 66.0 °F - 51.4 °F 59% 29.93 in 10.0 mi North 3.5 mph - N/A   Clear
6:15 PM 64.4 °F - 52.2 °F 64% 29.94 in 10.0 mi Calm Calm - N/A   Clear
6:34 PM 62.2 °F - 52.9 °F 71% 29.94 in 10.0 mi NNE 4.6 mph - N/A   Clear
6:54 PM 62.6 °F - 50.0 °F 63% 29.94 in 10.0 mi NNE 4.6 mph - N/A   Clear
7:15 PM 61.9 °F - 48.6 °F 62% 29.94 in 10.0 mi NNE 4.6 mph - N/A   Clear
7:34 PM 60.6 °F - 48.2 °F 64% 29.95 in 10.0 mi Calm Calm - N/A   Clear
7:55 PM 60.1 °F - 50.0 °F 69% 29.95 in 10.0 mi NNE 6.9 mph - N/A   Clear
8:15 PM 59.5 °F - 51.4 °F 75% 29.95 in 10.0 mi NNE 5.8 mph - N/A   Clear
8:34 PM 58.6 °F - 51.8 °F 78% 29.96 in 10.0 mi NNE 5.8 mph - N/A   Clear
8:55 PM 57.6 °F - 51.4 °F 80% 29.96 in 10.0 mi NE 5.8 mph - N/A   Clear
9:15 PM 56.1 °F - 50.4 °F 81% 29.96 in 10.0 mi NE 3.5 mph - N/A   Clear
9:34 PM 54.0 °F - 53.1 °F 97% 29.97 in 10.0 mi NE 5.8 mph - N/A   Clear
9:54 PM 53.6 °F - 51.3 °F 92% 29.97 in 10.0 mi NE 5.8 mph - N/A   Clear
10:15 PM 55.9 °F - 46.8 °F 71% 29.97 in 10.0 mi NE 5.8 mph - N/A   Clear
10:34 PM 53.8 °F - 46.6 °F 77% 29.97 in 10.0 mi ENE 4.6 mph - N/A   Clear
10:55 PM 52.7 °F - 47.3 °F 82% 29.97 in 10.0 mi NE 5.8 mph - N/A   Unknown
11:15 PM 53.1 °F - 47.3 °F 81% 29.98 in 10.0 mi NE 4.6 mph - N/A   Unknown
11:34 PM 52.5 °F - 47.5 °F 83% 29.98 in 10.0 mi NE 5.8 mph - N/A   Clear
11:55 PM 52.3 °F - 47.3 °F 83% 29.98 in 10.0 mi NE 5.8 mph - N/A   Unknown